Time;durP1;ratioP1;P1;durP2;ratioP2;P2;SDS_P1;SDS_P2;PMS_P1;PMS_P2;Temp;Humidity;BMP_temperature;BMP_pressure;BME280_temperature;BME280_humidity;BME280_pressure;Samples;Min_cycle;Max_cycle;Signal;HPM_P1;HPM_P2
2022/04/24 00:01:34;;;;;;;4.10;3.70;;;;;;;;;;5032271;28;20483;-77
2022/04/24 00:04:00;;;;;;;5.00;3.53;;;;;;;;;;5034545;28;20405;-77
2022/04/24 00:06:26;;;;;;;4.15;3.10;;;;;;;;;;5037032;28;20405;-76
2022/04/24 00:08:52;;;;;;;3.23;2.93;;;;;;;;;;5037145;28;20182;-76
2022/04/24 00:11:19;;;;;;;3.80;2.70;;;;;;;;;;5036201;28;20471;-77
2022/04/24 00:13:45;;;;;;;3.60;3.30;;;;;;;;;;5036660;28;20760;-75
2022/04/24 00:16:11;;;;;;;6.43;3.57;;;;;;;;;;5036566;28;20420;-76
2022/04/24 00:18:38;;;;;;;4.87;4.37;;;;;;;;;;5036610;28;20460;-76
2022/04/24 00:21:04;;;;;;;4.07;3.23;;;;;;;;;;5036218;28;20413;-76
2022/04/24 00:23:30;;;;;;;4.30;3.47;;;;;;;;;;5018407;28;20429;-77
2022/04/24 00:25:56;;;;;;;2.90;2.60;;;;;;;;;;5036510;28;20408;-76
2022/04/24 00:28:22;;;;;;;3.30;3.00;;;;;;;;;;5018670;28;20421;-77
2022/04/24 00:30:48;;;;;;;3.60;3.30;;;;;;;;;;5036126;28;20463;-77
2022/04/24 00:33:14;;;;;;;3.93;3.10;;;;;;;;;;5036336;28;20976;-77
2022/04/24 00:35:40;;;;;;;2.97;2.77;;;;;;;;;;5036538;28;20421;-76
2022/04/24 00:38:06;;;;;;;3.77;3.43;;;;;;;;;;5036337;28;20472;-77
2022/04/24 00:40:32;;;;;;;3.40;3.10;;;;;;;;;;5035991;28;20484;-75
2022/04/24 00:42:58;;;;;;;2.97;2.73;;;;;;;;;;5018196;28;20983;-77
2022/04/24 00:45:24;;;;;;;4.53;3.50;;;;;;;;;;5036099;28;20409;-76
2022/04/24 00:47:50;;;;;;;4.05;3.70;;;;;;;;;;5036103;28;20429;-76
2022/04/24 00:50:17;;;;;;;3.50;3.20;;;;;;;;;;5035639;28;20197;-76
2022/04/24 00:52:43;;;;;;;3.50;3.20;;;;;;;;;;5035808;28;20528;-76
2022/04/24 00:55:09;;;;;;;3.67;3.17;;;;;;;;;;5035843;28;20413;-77
2022/04/24 00:57:36;;;;;;;4.93;3.00;;;;;;;;;;5035659;28;20559;-76
2022/04/24 01:00:02;;;;;;;4.20;3.03;;;;;;;;;;5035659;28;20636;-77
2022/04/24 01:02:28;;;;;;;3.47;3.17;;;;;;;;;;5035325;28;20796;-78
2022/04/24 01:04:54;;;;;;;3.80;3.13;;;;;;;;;;5035781;28;20421;-77
2022/04/24 01:07:20;;;;;;;3.87;3.57;;;;;;;;;;5035676;28;20183;-78
2022/04/24 01:09:46;;;;;;;3.63;3.33;;;;;;;;;;5035637;28;20409;-75
2022/04/24 01:12:12;;;;;;;3.53;3.00;;;;;;;;;;5034973;28;20488;-78
2022/04/24 01:14:38;;;;;;;3.40;3.10;;;;;;;;;;5035548;28;20754;-76
2022/04/24 01:17:05;;;;;;;3.40;3.10;;;;;;;;;;5035524;28;20474;-75
2022/04/24 01:19:31;;;;;;;3.55;3.25;;;;;;;;;;5035418;28;20413;-76
2022/04/24 01:21:57;;;;;;;3.43;3.13;;;;;;;;;;5034987;28;20206;-77
2022/04/24 01:24:24;;;;;;;3.60;3.30;;;;;;;;;;5035450;28;20409;-76
2022/04/24 01:26:51;;;;;;;3.65;3.35;;;;;;;;;;5035592;28;20179;-75
2022/04/24 01:29:17;;;;;;;4.03;3.50;;;;;;;;;;5017906;28;20655;-76
2022/04/24 01:31:50;;;;;;;4.20;3.80;;;;;;;;;;5035012;28;20441;-77
2022/04/24 01:34:17;;;;;;;5.50;3.65;;;;;;;;;;5035415;28;20413;-76
2022/04/24 01:36:43;;;;;;;4.10;3.70;;;;;;;;;;5035387;28;20228;-76
2022/04/24 01:39:10;;;;;;;4.17;3.30;;;;;;;;;;5035125;28;20408;-77
2022/04/24 01:41:36;;;;;;;4.07;3.50;;;;;;;;;;5034855;28;20635;-75
2022/04/24 01:44:02;;;;;;;4.23;3.07;;;;;;;;;;5035080;28;20562;-77
2022/04/24 01:46:28;;;;;;;4.80;3.83;;;;;;;;;;5035217;28;20445;-76
2022/04/24 01:48:54;;;;;;;4.28;3.92;;;;;;;;;;5035216;28;20417;-75
2022/04/24 01:51:20;;;;;;;3.60;3.30;;;;;;;;;;5034888;28;20208;-76
2022/04/24 01:53:46;;;;;;;4.38;3.60;;;;;;;;;;5035121;28;20408;-75
2022/04/24 01:56:13;;;;;;;3.72;3.33;;;;;;;;;;5034848;28;20270;-76
2022/04/24 01:58:39;;;;;;;4.28;3.80;;;;;;;;;;5034847;28;20209;-76
2022/04/24 02:01:06;;;;;;;3.60;3.30;;;;;;;;;;5034552;28;20185;-77
2022/04/24 02:03:32;;;;;;;3.53;3.23;;;;;;;;;;5035026;28;20225;-77
2022/04/24 02:05:58;;;;;;;3.90;3.60;;;;;;;;;;5034767;28;20412;-75
2022/04/24 02:08:24;;;;;;;4.90;4.20;;;;;;;;;;5034642;28;20452;-75
2022/04/24 02:10:51;;;;;;;5.68;4.03;;;;;;;;;;5034553;28;20417;-74
2022/04/24 02:13:17;;;;;;;4.00;3.60;;;;;;;;;;5034719;28;20645;-77
2022/04/24 02:15:43;;;;;;;5.40;4.23;;;;;;;;;;5034896;28;20190;-76
2022/04/24 02:18:10;;;;;;;3.77;3.47;;;;;;;;;;5016886;28;20801;-75
2022/04/24 02:20:36;;;;;;;4.00;3.70;;;;;;;;;;5034069;28;20420;-75
2022/04/24 02:23:02;;;;;;;4.70;4.07;;;;;;;;;;5034462;28;20445;-74
2022/04/24 02:25:28;;;;;;;3.97;3.67;;;;;;;;;;5034278;28;20416;-74
2022/04/24 02:27:55;;;;;;;4.60;4.20;;;;;;;;;;5034085;28;20411;-75
2022/04/24 02:30:25;;;;;;;4.60;4.00;;;;;;;;;;5033828;28;20422;-75
2022/04/24 02:32:51;;;;;;;4.60;4.10;;;;;;;;;;5034202;28;20972;-77
2022/04/24 02:35:17;;;;;;;4.25;3.67;;;;;;;;;;5034212;28;20467;-75
2022/04/24 02:37:47;;;;;;;4.60;4.20;;;;;;;;;;5034156;28;20210;-76
2022/04/24 02:40:14;;;;;;;4.40;4.00;;;;;;;;;;5033958;28;20167;-77
2022/04/24 02:42:40;;;;;;;4.63;4.10;;;;;;;;;;5033945;28;20433;-74
2022/04/24 02:45:07;;;;;;;4.00;3.70;;;;;;;;;;5034158;28;20412;-75
2022/04/24 02:47:33;;;;;;;6.78;4.10;;;;;;;;;;5034138;28;20452;-74
2022/04/24 02:49:59;;;;;;;5.40;4.65;;;;;;;;;;5034092;28;20206;-74
2022/04/24 02:52:25;;;;;;;4.50;4.00;;;;;;;;;;5033448;28;20547;-75
2022/04/24 02:54:51;;;;;;;4.70;4.27;;;;;;;;;;5033861;28;20191;-76
2022/04/24 02:57:17;;;;;;;7.27;4.50;;;;;;;;;;5016327;28;20465;-77
2022/04/24 02:59:44;;;;;;;3.97;3.67;;;;;;;;;;5033739;28;20448;-75
2022/04/24 03:02:12;;;;;;;4.90;4.40;;;;;;;;;;5033330;28;20909;-77
2022/04/24 03:04:39;;;;;;;4.28;3.92;;;;;;;;;;5033565;28;20321;-78
2022/04/24 03:07:05;;;;;;;3.93;3.63;;;;;;;;;;5033866;28;20189;-76
2022/04/24 03:09:31;;;;;;;3.83;3.38;;;;;;;;;;5033602;28;20410;-77
2022/04/24 03:11:57;;;;;;;4.47;4.03;;;;;;;;;;5033397;28;20705;-74
2022/04/24 03:14:23;;;;;;;4.07;3.67;;;;;;;;;;5033593;28;20810;-75
2022/04/24 03:16:48;;;;;;;5.00;4.60;;;;;;;;;;5033250;28;20446;-76
2022/04/24 03:19:14;;;;;;;4.87;4.37;;;;;;;;;;5033479;28;20412;-75
2022/04/24 03:21:40;;;;;;;5.83;4.10;;;;;;;;;;5033125;28;20439;-75
2022/04/24 03:24:07;;;;;;;4.43;4.03;;;;;;;;;;5033361;28;20427;-75
2022/04/24 03:26:33;;;;;;;4.75;4.35;;;;;;;;;;5033636;28;20410;-74
2022/04/24 03:28:59;;;;;;;4.90;4.40;;;;;;;;;;5015999;28;20182;-75
2022/04/24 03:31:25;;;;;;;6.40;4.43;;;;;;;;;;5033016;28;20508;-75
2022/04/24 03:33:52;;;;;;;6.47;4.13;;;;;;;;;;5033404;28;20181;-76
2022/04/24 03:36:18;;;;;;;4.47;4.07;;;;;;;;;;5015700;28;20963;-75
2022/04/24 03:38:44;;;;;;;4.60;4.20;;;;;;;;;;5032403;28;20575;-77
2022/04/24 03:41:10;;;;;;;4.22;3.83;;;;;;;;;;5015340;28;20240;-75
2022/04/24 03:43:36;;;;;;;4.50;4.10;;;;;;;;;;5033308;28;20181;-76
2022/04/24 03:46:05;;;;;;;4.90;4.50;;;;;;;;;;5033224;28;20408;-77
2022/04/24 03:48:31;;;;;;;4.72;3.97;;;;;;;;;;5033010;28;20415;-77
2022/04/24 03:50:57;;;;;;;5.33;4.80;;;;;;;;;;5032684;28;20177;-75
2022/04/24 03:53:23;;;;;;;5.40;4.90;;;;;;;;;;5033060;28;20898;-76
2022/04/24 03:55:49;;;;;;;5.20;4.73;;;;;;;;;;5033138;28;20415;-75
2022/04/24 03:58:15;;;;;;;7.00;5.57;;;;;;;;;;5015249;28;20471;-75
2022/04/24 04:00:41;;;;;;;5.97;4.82;;;;;;;;;;5032601;28;20461;-75
2022/04/24 04:03:07;;;;;;;5.50;5.00;;;;;;;;;;5032697;28;20600;-74
2022/04/24 04:05:36;;;;;;;5.13;4.73;;;;;;;;;;5033007;28;20484;-76
2022/04/24 04:08:03;;;;;;;5.82;5.25;;;;;;;;;;5032989;28;20409;-76
2022/04/24 04:10:29;;;;;;;5.95;5.35;;;;;;;;;;5032542;28;21045;-78
2022/04/24 04:12:55;;;;;;;6.65;5.22;;;;;;;;;;5032661;28;20270;-76
2022/04/24 04:15:21;;;;;;;5.90;5.30;;;;;;;;;;5032808;28;20228;-75
2022/04/24 04:17:47;;;;;;;5.50;5.00;;;;;;;;;;5032761;28;20639;-74
2022/04/24 04:20:13;;;;;;;5.75;5.07;;;;;;;;;;5032470;28;20181;-76
2022/04/24 04:22:48;;;;;;;6.05;5.47;;;;;;;;;;5032748;28;20197;-77
2022/04/24 04:25:14;;;;;;;6.70;5.97;;;;;;;;;;5032726;28;20255;-78
2022/04/24 04:27:40;;;;;;;6.10;5.50;;;;;;;;;;5032928;28;20185;-77
2022/04/24 04:30:06;;;;;;;8.73;6.30;;;;;;;;;;5032792;28;20546;-78
2022/04/24 04:32:32;;;;;;;7.20;5.40;;;;;;;;;;5032459;28;20773;-78
2022/04/24 04:34:58;;;;;;;6.13;5.60;;;;;;;;;;4998835;28;20602;-77
2022/04/24 04:37:24;;;;;;;10.57;5.77;;;;;;;;;;5032417;28;20205;-75
2022/04/24 04:39:50;;;;;;;6.60;6.00;;;;;;;;;;5032626;28;20460;-76
2022/04/24 04:42:16;;;;;;;8.40;5.70;;;;;;;;;;5032439;28;20434;-76
2022/04/24 04:44:43;;;;;;;6.43;5.82;;;;;;;;;;5032775;28;20261;-76
2022/04/24 04:47:09;;;;;;;6.15;5.55;;;;;;;;;;5032596;28;20184;-75
2022/04/24 04:49:35;;;;;;;7.60;6.57;;;;;;;;;;5033412;28;20182;-76
2022/04/24 04:52:01;;;;;;;7.10;6.47;;;;;;;;;;5035906;28;20259;-77
2022/04/24 04:54:27;;;;;;;7.47;6.43;;;;;;;;;;5036203;28;20178;-76
2022/04/24 04:56:53;;;;;;;5.87;5.27;;;;;;;;;;5036111;28;20512;-77
2022/04/24 04:59:19;;;;;;;7.40;6.70;;;;;;;;;;5036088;28;20420;-74
2022/04/24 05:01:45;;;;;;;7.70;6.70;;;;;;;;;;5035515;28;20516;-77
2022/04/24 05:04:11;;;;;;;6.57;5.97;;;;;;;;;;5035970;28;20912;-76
2022/04/24 05:06:37;;;;;;;6.30;5.70;;;;;;;;;;5035928;28;20446;-76
2022/04/24 05:09:04;;;;;;;6.80;6.15;;;;;;;;;;5018524;28;20302;-76
2022/04/24 05:11:30;;;;;;;6.03;5.43;;;;;;;;;;5035189;28;20205;-76
2022/04/24 05:13:56;;;;;;;6.63;5.90;;;;;;;;;;5035758;28;20413;-75
2022/04/24 05:16:22;;;;;;;7.37;6.23;;;;;;;;;;5036030;28;20418;-77
2022/04/24 05:18:48;;;;;;;6.70;6.00;;;;;;;;;;5035950;28;20539;-76
2022/04/24 05:21:16;;;;;;;8.50;6.97;;;;;;;;;;5035326;28;20964;-75
2022/04/24 05:23:45;;;;;;;6.35;5.75;;;;;;;;;;5035598;28;20817;-74
2022/04/24 05:26:12;;;;;;;7.43;6.72;;;;;;;;;;5035574;28;20171;-76
2022/04/24 05:28:38;;;;;;;7.00;6.30;;;;;;;;;;5036242;28;20624;-77
2022/04/24 05:31:05;;;;;;;7.53;6.50;;;;;;;;;;5035395;28;20190;-76
2022/04/24 05:33:31;;;;;;;7.00;6.00;;;;;;;;;;5035537;28;20841;-76
2022/04/24 05:35:57;;;;;;;6.27;5.67;;;;;;;;;;5035420;28;20262;-78
2022/04/24 05:38:23;;;;;;;7.10;6.37;;;;;;;;;;5035531;28;21047;-77
2022/04/24 05:40:49;;;;;;;6.72;5.55;;;;;;;;;;5035207;28;20418;-77
2022/04/24 05:43:15;;;;;;;6.30;5.70;;;;;;;;;;5035272;28;20207;-76
2022/04/24 05:45:41;;;;;;;7.07;6.30;;;;;;;;;;5035304;28;20777;-77
2022/04/24 05:48:08;;;;;;;7.10;6.40;;;;;;;;;;5035156;28;20410;-76
2022/04/24 05:50:34;;;;;;;6.63;6.03;;;;;;;;;;5034839;28;20448;-78
2022/04/24 05:53:00;;;;;;;10.90;5.70;;;;;;;;;;5035075;28;20448;-76
2022/04/24 05:55:26;;;;;;;8.70;6.23;;;;;;;;;;5035010;28;20406;-76
2022/04/24 05:57:53;;;;;;;7.37;6.53;;;;;;;;;;5035063;28;20468;-75
2022/04/24 06:00:19;;;;;;;7.00;6.32;;;;;;;;;;5034491;28;20409;-77
2022/04/24 06:02:45;;;;;;;7.60;6.90;;;;;;;;;;5034098;28;20195;-75
2022/04/24 06:05:12;;;;;;;7.57;6.87;;;;;;;;;;5034938;28;20413;-74
2022/04/24 06:07:38;;;;;;;7.77;7.00;;;;;;;;;;5034855;28;20812;-76
2022/04/24 06:10:05;;;;;;;7.33;6.63;;;;;;;;;;5034607;28;20414;-77
2022/04/24 06:12:31;;;;;;;7.43;6.73;;;;;;;;;;5034123;28;20458;-77
2022/04/24 06:15:04;;;;;;;7.63;6.43;;;;;;;;;;5034748;28;20852;-77
2022/04/24 06:17:29;;;;;;;7.00;6.30;;;;;;;;;;5034559;28;20453;-75
2022/04/24 06:19:55;;;;;;;7.27;6.40;;;;;;;;;;5034604;28;20432;-75
2022/04/24 06:22:21;;;;;;;6.73;6.13;;;;;;;;;;5034352;28;20437;-75
2022/04/24 06:24:50;;;;;;;7.83;6.63;;;;;;;;;;5034825;28;20388;-76
2022/04/24 06:27:16;;;;;;;7.73;6.67;;;;;;;;;;5034785;28;20389;-76
2022/04/24 06:29:42;;;;;;;7.60;6.83;;;;;;;;;;5034536;28;20419;-78
2022/04/24 06:32:08;;;;;;;9.33;7.83;;;;;;;;;;5034109;28;20911;-77
2022/04/24 06:34:36;;;;;;;9.77;7.70;;;;;;;;;;5034210;28;20845;-77
2022/04/24 06:37:02;;;;;;;7.57;6.77;;;;;;;;;;5034070;28;20444;-77
2022/04/24 06:39:28;;;;;;;8.40;7.60;;;;;;;;;;5034351;28;20821;-77
2022/04/24 06:41:54;;;;;;;7.70;6.93;;;;;;;;;;5033903;28;20429;-74
2022/04/24 06:44:20;;;;;;;7.70;7.00;;;;;;;;;;5034145;28;20417;-74
2022/04/24 06:46:46;;;;;;;8.23;7.07;;;;;;;;;;5033870;28;20414;-75
2022/04/24 06:49:12;;;;;;;7.60;6.80;;;;;;;;;;5034009;28;20420;-76
2022/04/24 06:51:38;;;;;;;8.33;7.20;;;;;;;;;;5033598;28;20477;-76
2022/04/24 06:54:04;;;;;;;7.13;6.40;;;;;;;;;;5034075;28;20417;-76
2022/04/24 06:56:30;;;;;;;7.63;6.90;;;;;;;;;;5016273;28;20417;-76
2022/04/24 06:58:56;;;;;;;7.70;7.00;;;;;;;;;;5033929;28;20480;-75
2022/04/24 07:01:23;;;;;;;7.97;7.20;;;;;;;;;;5033383;28;20425;-75
2022/04/24 07:03:49;;;;;;;8.30;7.50;;;;;;;;;;5033802;28;20830;-75
2022/04/24 07:06:15;;;;;;;8.40;6.83;;;;;;;;;;5033718;28;20384;-75
2022/04/24 07:08:41;;;;;;;8.30;7.37;;;;;;;;;;5033417;28;20916;-75
2022/04/24 07:11:08;;;;;;;8.23;7.53;;;;;;;;;;5033221;28;20413;-76
2022/04/24 07:13:33;;;;;;;7.03;6.43;;;;;;;;;;5033464;28;20433;-74
2022/04/24 07:16:00;;;;;;;8.13;7.33;;;;;;;;;;5033581;28;20467;-76
2022/04/24 07:18:27;;;;;;;7.27;6.63;;;;;;;;;;5015886;28;20465;-77
2022/04/24 07:20:55;;;;;;;6.90;6.30;;;;;;;;;;5033247;28;20413;-76
2022/04/24 07:23:21;;;;;;;7.43;6.73;;;;;;;;;;5033557;28;20401;-75
2022/04/24 07:25:48;;;;;;;7.87;7.13;;;;;;;;;;5033536;28;20508;-76
2022/04/24 07:28:14;;;;;;;10.20;8.80;;;;;;;;;;5033448;28;20447;-76
2022/04/24 07:30:40;;;;;;;7.97;7.23;;;;;;;;;;5032860;28;20452;-74
2022/04/24 07:33:06;;;;;;;6.60;6.10;;;;;;;;;;5033296;28;20433;-76
2022/04/24 07:35:36;;;;;;;8.60;7.80;;;;;;;;;;5033303;28;20395;-76
2022/04/24 07:38:02;;;;;;;6.93;6.20;;;;;;;;;;5033417;28;20801;-77
2022/04/24 07:40:30;;;;;;;7.03;6.33;;;;;;;;;;5033075;28;20408;-76
2022/04/24 07:43:00;;;;;;;7.10;6.33;;;;;;;;;;5033226;28;20941;-77
2022/04/24 07:45:27;;;;;;;8.43;7.60;;;;;;;;;;5033332;28;20388;-77
2022/04/24 07:47:54;;;;;;;7.13;6.20;;;;;;;;;;5033357;28;20500;-77
2022/04/24 07:50:21;;;;;;;8.40;7.20;;;;;;;;;;5032765;28;20418;-76
2022/04/24 07:52:47;;;;;;;7.60;6.80;;;;;;;;;;5015551;28;20414;-76
2022/04/24 07:55:17;;;;;;;12.07;7.40;;;;;;;;;;5033285;28;20438;-76
2022/04/24 07:57:43;;;;;;;7.90;6.93;;;;;;;;;;5033031;28;20569;-76
2022/04/24 08:00:12;;;;;;;8.03;7.30;;;;;;;;;;5032962;28;20427;-75
2022/04/24 08:02:58;;;;;;;7.10;6.40;;;;;;;;;;5032963;28;20433;-76
2022/04/24 08:05:25;;;;;;;7.30;6.70;;;;;;;;;;5015349;28;20496;-76
2022/04/24 08:07:51;;;;;;;8.20;7.50;;;;;;;;;;5032910;28;20415;-77
2022/04/24 08:10:17;;;;;;;9.10;7.67;;;;;;;;;;5032744;28;20392;-76
2022/04/24 08:12:43;;;;;;;7.70;6.90;;;;;;;;;;5032729;28;20445;-77
2022/04/24 08:15:09;;;;;;;7.53;6.83;;;;;;;;;;5032705;28;20415;-73
2022/04/24 08:17:35;;;;;;;7.93;7.23;;;;;;;;;;5015077;28;20967;-74
2022/04/24 08:20:02;;;;;;;8.10;7.30;;;;;;;;;;5032942;28;20388;-74
2022/04/24 08:22:35;;;;;;;7.00;6.40;;;;;;;;;;5032438;28;20450;-75
2022/04/24 08:25:01;;;;;;;7.77;7.00;;;;;;;;;;5034432;28;20886;-73
2022/04/24 08:27:27;;;;;;;6.97;6.27;;;;;;;;;;5036893;28;20417;-74
2022/04/24 08:29:53;;;;;;;7.47;6.80;;;;;;;;;;5036732;28;20539;-74
2022/04/24 08:32:21;;;;;;;7.20;6.50;;;;;;;;;;5036356;28;20430;-74
2022/04/24 08:34:47;;;;;;;8.80;6.70;;;;;;;;;;5036390;28;20474;-74
2022/04/24 08:37:13;;;;;;;6.70;6.10;;;;;;;;;;5036444;28;20504;-75
2022/04/24 08:39:39;;;;;;;7.03;6.33;;;;;;;;;;5036480;28;20395;-74
2022/04/24 08:42:07;;;;;;;8.10;7.30;;;;;;;;;;5035989;28;20486;-73
2022/04/24 08:44:33;;;;;;;7.73;7.03;;;;;;;;;;5036428;28;20384;-74
2022/04/24 08:47:00;;;;;;;7.33;6.63;;;;;;;;;;5036239;28;20414;-74
2022/04/24 08:49:30;;;;;;;7.80;7.10;;;;;;;;;;5036169;28;20433;-75
2022/04/24 08:51:56;;;;;;;7.67;6.97;;;;;;;;;;5035887;28;21019;-74
2022/04/24 08:54:22;;;;;;;7.83;7.23;;;;;;;;;;5018646;28;20392;-74
2022/04/24 08:56:49;;;;;;;9.53;7.70;;;;;;;;;;5036209;28;20413;-73
2022/04/24 08:59:15;;;;;;;8.37;7.67;;;;;;;;;;5035963;28;20442;-74
2022/04/24 09:01:45;;;;;;;7.40;6.80;;;;;;;;;;5035795;28;20900;-74
2022/04/24 09:04:11;;;;;;;9.50;7.70;;;;;;;;;;5036093;28;20381;-75
2022/04/24 09:06:37;;;;;;;8.43;7.60;;;;;;;;;;5035997;28;20417;-75
2022/04/24 09:09:06;;;;;;;9.30;6.60;;;;;;;;;;5001659;28;20407;-74
2022/04/24 09:11:33;;;;;;;7.67;6.97;;;;;;;;;;5035125;28;20467;-75
2022/04/24 09:16:48;;;;;;;8.00;7.20;;;;;;;;;;5035876;28;20936;-74
2022/04/24 09:19:20;;;;;;;7.43;6.60;;;;;;;;;;5035564;28;20469;-75
2022/04/24 09:21:46;;;;;;;8.90;8.00;;;;;;;;;;5035229;28;20408;-75
2022/04/24 09:24:12;;;;;;;8.50;7.20;;;;;;;;;;5035815;28;20433;-74
2022/04/24 09:26:38;;;;;;;7.80;7.00;;;;;;;;;;5035706;28;20991;-75
2022/04/24 09:29:11;;;;;;;10.50;7.80;;;;;;;;;;5035695;28;20416;-74
2022/04/24 09:31:37;;;;;;;8.10;7.23;;;;;;;;;;5035009;28;20429;-75
2022/04/24 09:34:03;;;;;;;8.07;7.23;;;;;;;;;;5035483;28;20441;-75
2022/04/24 09:36:28;;;;;;;6.70;6.00;;;;;;;;;;5016411;28;20517;-75
2022/04/24 09:38:54;;;;;;;7.60;6.60;;;;;;;;;;5035103;28;20480;-75
2022/04/24 09:41:21;;;;;;;7.50;6.80;;;;;;;;;;5017077;28;20524;-75
2022/04/24 09:43:48;;;;;;;6.83;6.23;;;;;;;;;;5017799;28;20855;-75
2022/04/24 09:46:23;;;;;;;6.63;6.03;;;;;;;;;;5035221;28;20752;-74
2022/04/24 09:48:53;;;;;;;7.00;6.40;;;;;;;;;;5017452;28;20413;-74
2022/04/24 09:51:20;;;;;;;7.37;6.67;;;;;;;;;;5034860;28;20769;-74
2022/04/24 09:53:47;;;;;;;7.50;6.80;;;;;;;;;;5035019;28;20417;-76
2022/04/24 09:56:15;;;;;;;6.43;5.80;;;;;;;;;;5034906;28;20415;-73
2022/04/24 09:58:41;;;;;;;7.87;7.00;;;;;;;;;;5034720;28;20514;-73
2022/04/24 10:01:10;;;;;;;7.20;6.50;;;;;;;;;;5034336;28;20897;-73
2022/04/24 10:03:38;;;;;;;8.10;7.00;;;;;;;;;;5034596;28;20447;-73
2022/04/24 10:06:05;;;;;;;7.47;6.53;;;;;;;;;;5034557;28;20417;-73
2022/04/24 10:08:35;;;;;;;7.33;6.63;;;;;;;;;;5034423;28;20413;-73
2022/04/24 10:11:02;;;;;;;7.93;7.33;;;;;;;;;;5034151;28;20543;-73
2022/04/24 10:13:28;;;;;;;7.13;6.43;;;;;;;;;;5034279;28;20440;-75
2022/04/24 10:16:15;;;;;;;7.63;7.03;;;;;;;;;;5034239;28;20462;-76
2022/04/24 10:18:47;;;;;;;6.90;6.30;;;;;;;;;;5034226;28;20460;-74
2022/04/24 10:21:25;;;;;;;7.97;7.20;;;;;;;;;;5033973;28;20836;-73
2022/04/24 10:23:51;;;;;;;7.50;6.90;;;;;;;;;;5034370;28;20845;-75
2022/04/24 10:26:18;;;;;;;8.37;7.13;;;;;;;;;;5034194;28;20803;-75
2022/04/24 10:28:46;;;;;;;9.87;7.60;;;;;;;;;;5034310;28;20441;-74
2022/04/24 10:31:12;;;;;;;6.97;6.37;;;;;;;;;;5034013;28;20495;-74
2022/04/24 10:33:42;;;;;;;7.40;6.70;;;;;;;;;;5034257;28;20413;-75
2022/04/24 10:36:15;;;;;;;7.70;6.93;;;;;;;;;;5016061;28;20437;-76
2022/04/24 10:38:51;;;;;;;6.50;5.90;;;;;;;;;;5033973;28;20511;-73
2022/04/24 10:41:18;;;;;;;7.20;6.23;;;;;;;;;;5033640;28;20847;-75
2022/04/24 10:43:52;;;;;;;8.40;6.87;;;;;;;;;;5034059;28;20451;-74
2022/04/24 10:46:28;;;;;;;7.73;7.03;;;;;;;;;;5034024;28;20492;-75
2022/04/24 10:48:55;;;;;;;6.80;6.20;;;;;;;;;;5033670;28;20413;-75
2022/04/24 10:51:28;;;;;;;10.40;7.33;;;;;;;;;;5033581;28;20438;-73
2022/04/24 10:54:02;;;;;;;8.77;6.60;;;;;;;;;;5033893;28;20401;-75
2022/04/24 10:56:29;;;;;;;7.00;6.40;;;;;;;;;;5033577;28;20418;-74
2022/04/24 10:59:12;;;;;;;8.13;7.33;;;;;;;;;;5016207;28;20847;-76
2022/04/24 11:01:38;;;;;;;8.47;7.67;;;;;;;;;;5033441;28;20421;-73
2022/04/24 11:04:08;;;;;;;7.83;6.50;;;;;;;;;;5033812;28;20406;-75
2022/04/24 11:06:34;;;;;;;7.60;6.90;;;;;;;;;;5033456;28;20409;-75
2022/04/24 11:09:07;;;;;;;6.13;5.60;;;;;;;;;;5033616;28;20535;-75
2022/04/24 11:11:33;;;;;;;9.03;7.53;;;;;;;;;;5032949;28;20437;-74
2022/04/24 11:14:01;;;;;;;8.10;7.37;;;;;;;;;;5033568;28;20416;-73
2022/04/24 11:16:27;;;;;;;7.63;6.93;;;;;;;;;;5033183;28;20502;-73
2022/04/24 11:18:54;;;;;;;6.50;5.93;;;;;;;;;;5033269;28;20453;-73
2022/04/24 11:21:21;;;;;;;7.50;5.97;;;;;;;;;;5033054;28;20437;-73
2022/04/24 11:23:47;;;;;;;12.03;6.00;;;;;;;;;;5033410;28;20844;-73
2022/04/24 11:26:14;;;;;;;6.97;6.27;;;;;;;;;;5033560;28;20417;-76
2022/04/24 11:28:41;;;;;;;6.77;6.17;;;;;;;;;;5033133;28;20423;-73
2022/04/24 11:31:08;;;;;;;6.63;5.93;;;;;;;;;;5032995;28;20467;-73
2022/04/24 11:33:35;;;;;;;6.30;5.80;;;;;;;;;;5033101;28;20417;-73
2022/04/24 11:36:04;;;;;;;6.73;6.03;;;;;;;;;;5033012;28;20428;-73
2022/04/24 11:38:31;;;;;;;7.73;7.13;;;;;;;;;;5015154;28;21057;-72
2022/04/24 11:41:03;;;;;;;6.10;5.50;;;;;;;;;;5032760;28;20748;-73
2022/04/24 11:43:29;;;;;;;6.97;6.37;;;;;;;;;;5033097;28;20457;-72
2022/04/24 11:51:36;;;;;;;7.03;6.43;;;;;;;;;;5033137;28;20516;-73
2022/04/24 11:54:02;;;;;;;8.87;7.03;;;;;;;;;;5033041;28;20496;-71
2022/04/24 11:56:28;;;;;;;8.20;6.20;;;;;;;;;;5033119;28;20416;-71
2022/04/24 11:59:10;;;;;;;6.10;5.50;;;;;;;;;;5032991;28;20475;-71
2022/04/24 12:01:36;;;;;;;7.10;6.50;;;;;;;;;;5036851;28;20429;-72
2022/04/24 12:04:02;;;;;;;7.43;6.83;;;;;;;;;;5037132;28;20778;-72
2022/04/24 12:06:34;;;;;;;7.00;6.40;;;;;;;;;;5036976;28;20413;-73
2022/04/24 12:09:10;;;;;;;7.10;6.50;;;;;;;;;;5037043;28;20483;-73
2022/04/24 12:11:36;;;;;;;9.67;6.13;;;;;;;;;;5036420;28;20433;-75
2022/04/24 12:14:06;;;;;;;8.23;7.53;;;;;;;;;;5037054;28;20424;-72
2022/04/24 12:16:32;;;;;;;7.10;6.50;;;;;;;;;;5036785;28;20417;-72
2022/04/24 12:18:59;;;;;;;5.90;5.40;;;;;;;;;;5017287;28;20492;-72
2022/04/24 12:21:25;;;;;;;8.13;7.33;;;;;;;;;;5026234;28;20434;-72
2022/04/24 12:23:52;;;;;;;5.80;5.17;;;;;;;;;;5025283;28;20505;-72
2022/04/24 12:26:18;;;;;;;7.27;6.57;;;;;;;;;;5001512;28;20426;-71
2022/04/24 12:28:44;;;;;;;6.43;5.70;;;;;;;;;;5016906;28;20454;-73
2022/04/24 12:31:21;;;;;;;6.40;5.90;;;;;;;;;;4998831;28;20796;-74
2022/04/24 12:33:51;;;;;;;6.63;6.03;;;;;;;;;;5016708;28;20413;-74
2022/04/24 12:36:17;;;;;;;8.27;7.07;;;;;;;;;;5017008;28;20412;-74
2022/04/24 12:38:55;;;;;;;7.40;6.80;;;;;;;;;;5016822;28;20468;-74
2022/04/24 12:41:25;;;;;;;6.57;6.00;;;;;;;;;;5021543;28;20436;-73
2022/04/24 12:43:51;;;;;;;6.60;6.00;;;;;;;;;;5027440;28;20770;-72
2022/04/24 12:46:18;;;;;;;7.17;6.57;;;;;;;;;;5036401;28;20425;-73
2022/04/24 12:48:48;;;;;;;7.20;6.60;;;;;;;;;;5036302;28;20779;-72
2022/04/24 12:51:15;;;;;;;6.77;6.17;;;;;;;;;;5035756;28;20401;-72
2022/04/24 12:53:41;;;;;;;7.60;7.00;;;;;;;;;;5036318;28;20881;-73
2022/04/24 12:56:07;;;;;;;6.97;5.60;;;;;;;;;;5018736;28;20417;-75
2022/04/24 12:58:33;;;;;;;6.43;5.90;;;;;;;;;;5036213;28;20457;-74
2022/04/24 13:01:01;;;;;;;8.30;5.20;;;;;;;;;;5035668;28;20484;-74
2022/04/24 13:03:27;;;;;;;7.10;6.00;;;;;;;;;;5036086;28;20459;-74
2022/04/24 13:05:53;;;;;;;6.13;5.60;;;;;;;;;;5036056;28;20409;-74
2022/04/24 13:08:19;;;;;;;6.10;5.50;;;;;;;;;;5035704;28;20421;-74
2022/04/24 13:10:45;;;;;;;5.33;4.90;;;;;;;;;;5035298;28;20417;-73
2022/04/24 13:13:11;;;;;;;6.73;6.03;;;;;;;;;;5035338;28;20453;-74
2022/04/24 13:15:37;;;;;;;6.10;5.60;;;;;;;;;;5035738;28;20899;-74
2022/04/24 13:18:07;;;;;;;7.07;5.87;;;;;;;;;;5035531;28;20483;-75
2022/04/24 13:20:38;;;;;;;8.00;5.30;;;;;;;;;;5035333;28;20409;-75
2022/04/24 13:23:04;;;;;;;6.03;5.40;;;;;;;;;;5033384;28;20432;-74
2022/04/24 13:25:30;;;;;;;5.50;5.00;;;;;;;;;;5028290;28;20421;-73
2022/04/24 13:27:56;;;;;;;6.57;4.87;;;;;;;;;;5035459;28;20414;-75
2022/04/24 13:30:22;;;;;;;4.90;4.50;;;;;;;;;;5035215;28;20940;-74
2022/04/24 13:32:48;;;;;;;5.43;4.70;;;;;;;;;;5035328;28;20449;-73
2022/04/24 13:35:14;;;;;;;5.90;5.37;;;;;;;;;;5035376;28;20410;-74
2022/04/24 13:40:25;;;;;;;6.90;5.20;;;;;;;;;;5035260;28;20464;-74
2022/04/24 13:42:51;;;;;;;5.47;5.07;;;;;;;;;;5035340;28;20926;-73
2022/04/24 13:45:17;;;;;;;5.57;5.03;;;;;;;;;;5035201;28;20398;-73
2022/04/24 13:47:45;;;;;;;5.27;4.87;;;;;;;;;;5035034;28;20410;-75
2022/04/24 13:50:11;;;;;;;4.80;4.40;;;;;;;;;;5034774;28;20414;-74
2022/04/24 13:52:37;;;;;;;5.30;4.80;;;;;;;;;;5035001;28;20928;-74
2022/04/24 13:55:03;;;;;;;4.90;4.50;;;;;;;;;;5035266;28;20562;-73
2022/04/24 13:57:29;;;;;;;5.67;5.03;;;;;;;;;;5034929;28;20489;-74
2022/04/24 13:59:56;;;;;;;5.30;4.27;;;;;;;;;;5034689;28;20450;-74
2022/04/24 14:02:22;;;;;;;4.90;4.40;;;;;;;;;;5034637;28;20508;-74
2022/04/24 14:04:48;;;;;;;5.30;4.80;;;;;;;;;;5035004;28;20406;-75
2022/04/24 14:07:14;;;;;;;5.73;5.13;;;;;;;;;;5034832;28;20776;-75
2022/04/24 14:09:41;;;;;;;5.60;5.10;;;;;;;;;;5034719;28;20902;-74
2022/04/24 14:12:08;;;;;;;5.00;4.50;;;;;;;;;;5034232;28;20449;-73
2022/04/24 14:14:34;;;;;;;4.73;4.33;;;;;;;;;;5034624;28;20401;-74
2022/04/24 14:17:00;;;;;;;4.70;4.30;;;;;;;;;;5034608;28;20416;-74
2022/04/24 14:19:26;;;;;;;4.37;4.07;;;;;;;;;;5034495;28;20551;-75
2022/04/24 14:21:55;;;;;;;4.53;4.13;;;;;;;;;;5033385;28;20512;-73
2022/04/24 14:24:22;;;;;;;4.90;4.50;;;;;;;;;;5033533;28;20728;-73
2022/04/24 14:26:48;;;;;;;4.73;4.30;;;;;;;;;;5016635;28;20253;-73
2022/04/24 14:29:14;;;;;;;4.27;3.87;;;;;;;;;;5034153;28;20416;-73
2022/04/24 14:31:40;;;;;;;6.60;4.80;;;;;;;;;;5033880;28;20457;-73
2022/04/24 14:34:06;;;;;;;4.80;4.30;;;;;;;;;;5034309;28;20467;-74
2022/04/24 14:36:32;;;;;;;4.67;4.27;;;;;;;;;;5034215;28;20501;-74
2022/04/24 14:38:58;;;;;;;5.23;4.73;;;;;;;;;;5034121;28;20559;-74
2022/04/24 14:41:24;;;;;;;5.83;4.60;;;;;;;;;;5028098;28;20445;-73
2022/04/24 14:43:50;;;;;;;5.10;4.70;;;;;;;;;;5034236;28;20755;-74
2022/04/24 14:57:14;;;;;;;5.30;4.80;;;;;;;;;;5019550;28;20416;-76
2022/04/24 14:59:40;;;;;;;5.07;4.67;;;;;;;;;;5033948;28;20421;-76
2022/04/24 15:02:06;;;;;;;5.30;4.80;;;;;;;;;;5033079;28;20425;-76
2022/04/24 15:04:33;;;;;;;6.57;5.27;;;;;;;;;;5033898;28;20414;-75